Time;durP1;ratioP1;P1;durP2;ratioP2;P2;SDS_P1;SDS_P2;PMS_P1;PMS_P2;Temp;Humidity;BMP_temperature;BMP_pressure;BME280_temperature;BME280_humidity;BME280_pressure;Samples;Min_cycle;Max_cycle;Signal;HPM_P1;HPM_P2
2022/05/14 00:01:35;;;;;;;6.00;3.80;;;;;;;;;;4979968;28;20078;-85
2022/05/14 00:04:00;;;;;;;4.78;3.90;;;;;;;;;;4980717;28;20030;-85
2022/05/14 00:06:28;;;;;;;9.32;3.95;;;;;;;;;;4980328;28;20034;-85
2022/05/14 00:08:54;;;;;;;9.73;4.00;;;;;;;;;;4980186;28;20046;-85
2022/05/14 00:14:06;;;;;;;5.80;3.58;;;;;;;;;;4979873;28;20039;-85
2022/05/14 00:16:33;;;;;;;7.00;3.95;;;;;;;;;;4980186;28;20426;-85
2022/05/14 00:19:00;;;;;;;7.10;4.32;;;;;;;;;;4980334;28;20538;-85
2022/05/14 00:21:26;;;;;;;5.32;3.88;;;;;;;;;;4980912;28;20046;-85
2022/05/14 00:23:51;;;;;;;6.38;4.10;;;;;;;;;;4980807;28;20066;-85
2022/05/14 00:26:17;;;;;;;6.82;4.30;;;;;;;;;;4979979;28;20058;-85
2022/05/14 00:28:43;;;;;;;9.48;4.38;;;;;;;;;;4980045;28;20030;-85
2022/05/14 00:31:09;;;;;;;8.50;4.20;;;;;;;;;;4979869;28;20124;-85
2022/05/14 00:33:35;;;;;;;8.35;4.00;;;;;;;;;;4980463;28;20039;-85
2022/05/14 00:36:01;;;;;;;10.02;4.53;;;;;;;;;;4994723;28;20447;-85
2022/05/14 00:38:26;;;;;;;5.45;4.40;;;;;;;;;;4979741;28;20046;-86
2022/05/14 00:41:06;;;;;;;6.70;4.93;;;;;;;;;;4980577;28;20027;-85
2022/05/14 00:43:33;;;;;;;7.25;4.47;;;;;;;;;;4978778;28;20368;-85
2022/05/14 00:46:15;;;;;;;7.40;4.68;;;;;;;;;;4978085;28;20026;-85
2022/05/14 00:48:42;;;;;;;9.65;4.25;;;;;;;;;;4994924;28;20042;-85
2022/05/14 00:51:13;;;;;;;6.75;3.80;;;;;;;;;;4979789;28;20510;-85
2022/05/14 00:53:44;;;;;;;4.82;3.45;;;;;;;;;;4980025;28;20038;-85
2022/05/14 00:56:14;;;;;;;5.95;3.60;;;;;;;;;;4978141;28;20042;-84
2022/05/14 00:58:49;;;;;;;6.00;3.70;;;;;;;;;;4978503;28;20065;-86
2022/05/14 01:01:15;;;;;;;4.60;3.63;;;;;;;;;;4994792;28;20073;-85
2022/05/14 01:03:41;;;;;;;4.93;3.78;;;;;;;;;;4979374;28;20057;-85
2022/05/14 01:06:12;;;;;;;5.50;3.55;;;;;;;;;;4998970;28;20030;-85
2022/05/14 01:08:37;;;;;;;6.63;3.65;;;;;;;;;;4998850;28;20499;-85
2022/05/14 01:11:04;;;;;;;6.68;3.80;;;;;;;;;;4997975;28;20035;-85
2022/05/14 01:13:31;;;;;;;5.22;3.47;;;;;;;;;;4998393;28;20010;-85
2022/05/14 01:16:01;;;;;;;8.43;4.15;;;;;;;;;;4981410;28;20046;-85
2022/05/14 01:18:31;;;;;;;7.35;3.92;;;;;;;;;;4983010;28;20027;-85
2022/05/14 01:21:11;;;;;;;9.75;4.20;;;;;;;;;;4981558;28;20121;-85
2022/05/14 01:26:48;;;;;;;5.88;4.13;;;;;;;;;;4998270;28;20384;-85
2022/05/14 01:29:22;;;;;;;6.57;3.97;;;;;;;;;;4997935;28;20023;-85
2022/05/14 01:31:52;;;;;;;7.10;3.70;;;;;;;;;;4982198;28;20035;-85
2022/05/14 01:34:24;;;;;;;10.60;4.50;;;;;;;;;;4997921;28;20031;-85
2022/05/14 01:36:51;;;;;;;7.88;4.22;;;;;;;;;;4981772;28;20074;-85
2022/05/14 01:39:18;;;;;;;6.70;4.03;;;;;;;;;;4997588;28;20018;-85
2022/05/14 01:41:44;;;;;;;4.97;3.83;;;;;;;;;;4982654;28;20031;-85
2022/05/14 01:44:11;;;;;;;6.80;3.88;;;;;;;;;;4981316;28;20035;-85
2022/05/14 01:46:37;;;;;;;5.93;4.10;;;;;;;;;;4981680;28;20031;-85
2022/05/14 01:49:03;;;;;;;7.78;3.83;;;;;;;;;;4997825;28;20035;-85
2022/05/14 01:51:30;;;;;;;6.65;4.65;;;;;;;;;;4981667;28;20041;-85
2022/05/14 01:53:56;;;;;;;6.68;4.22;;;;;;;;;;4981317;28;20077;-85
2022/05/14 01:56:22;;;;;;;7.60;4.50;;;;;;;;;;4981184;28;20748;-85
2022/05/14 01:58:47;;;;;;;6.55;4.70;;;;;;;;;;4981523;28;20039;-85
2022/05/14 02:01:20;;;;;;;7.38;4.30;;;;;;;;;;4981389;28;20507;-85
2022/05/14 02:03:53;;;;;;;6.18;4.45;;;;;;;;;;4981708;28;20045;-85
2022/05/14 02:06:20;;;;;;;;;;;;;;;;;;4981494;28;20057;-85
2022/05/14 02:08:46;;;;;;;7.97;3.67;;;;;;;;;;4981689;28;20370;-85
2022/05/14 02:11:13;;;;;;;7.50;4.03;;;;;;;;;;4982620;28;20045;-85
2022/05/14 02:13:42;;;;;;;10.80;4.35;;;;;;;;;;4997629;28;20049;-85
2022/05/14 02:16:08;;;;;;;7.75;4.18;;;;;;;;;;4996375;28;20031;-85
2022/05/14 02:18:35;;;;;;;9.75;4.10;;;;;;;;;;4981157;28;20058;-85
2022/05/14 02:21:01;;;;;;;5.93;4.22;;;;;;;;;;4981573;28;20038;-85
2022/05/14 02:23:27;;;;;;;6.43;4.07;;;;;;;;;;4980748;28;20045;-85
2022/05/14 02:25:53;;;;;;;7.07;4.40;;;;;;;;;;4996802;28;20034;-85
2022/05/14 02:28:19;;;;;;;7.82;4.38;;;;;;;;;;4980338;28;20043;-85
2022/05/14 02:30:45;;;;;;;10.80;4.78;;;;;;;;;;4997313;28;20034;-85
2022/05/14 02:33:11;;;;;;;8.27;4.80;;;;;;;;;;4997206;28;20039;-85
2022/05/14 02:35:36;;;;;;;9.35;4.25;;;;;;;;;;4981737;28;20049;-85
2022/05/14 02:38:03;;;;;;;6.25;4.40;;;;;;;;;;4996909;28;20066;-84
2022/05/14 02:40:29;;;;;;;7.72;5.13;;;;;;;;;;4980985;28;20407;-85
2022/05/14 02:42:55;;;;;;;9.98;4.85;;;;;;;;;;4996772;28;20029;-85
2022/05/14 02:45:21;;;;;;;7.03;4.32;;;;;;;;;;4996656;28;20043;-85
2022/05/14 02:47:47;;;;;;;7.32;4.75;;;;;;;;;;4981331;28;20057;-85
2022/05/14 02:50:13;;;;;;;5.97;4.43;;;;;;;;;;4981055;28;20525;-85
2022/05/14 02:52:39;;;;;;;6.85;4.57;;;;;;;;;;4980888;28;20035;-85
2022/05/14 02:55:07;;;;;;;6.28;4.50;;;;;;;;;;4996198;28;20407;-85
2022/05/14 02:57:33;;;;;;;10.38;5.13;;;;;;;;;;4996410;28;20105;-85
2022/05/14 02:59:59;;;;;;;8.13;4.93;;;;;;;;;;4996387;28;20038;-85
2022/05/14 03:02:25;;;;;;;7.53;4.65;;;;;;;;;;4981191;28;20030;-85
2022/05/14 03:04:50;;;;;;;10.20;5.20;;;;;;;;;;4996236;28;20069;-85
2022/05/14 03:07:16;;;;;;;6.75;4.45;;;;;;;;;;4980042;28;20069;-85
2022/05/14 03:09:43;;;;;;;6.05;4.35;;;;;;;;;;4981118;28;20090;-86
2022/05/14 03:12:11;;;;;;;7.13;5.25;;;;;;;;;;4979352;28;20034;-85
2022/05/14 03:14:37;;;;;;;5.88;4.63;;;;;;;;;;4980913;28;20404;-85
2022/05/14 03:17:03;;;;;;;8.43;5.18;;;;;;;;;;4980971;28;20452;-85
2022/05/14 03:19:29;;;;;;;7.72;5.13;;;;;;;;;;4979569;28;20072;-85
2022/05/14 03:21:55;;;;;;;6.05;5.03;;;;;;;;;;4980527;28;20027;-85
2022/05/14 03:24:20;;;;;;;7.32;4.80;;;;;;;;;;4979035;28;20039;-85
2022/05/14 03:26:47;;;;;;;6.88;5.00;;;;;;;;;;4995480;28;20035;-85
2022/05/14 03:29:13;;;;;;;8.10;5.28;;;;;;;;;;4979829;28;20034;-85
2022/05/14 03:31:40;;;;;;;9.13;5.28;;;;;;;;;;4995621;28;20062;-85
2022/05/14 03:34:10;;;;;;;6.43;5.72;;;;;;;;;;4995143;28;20065;-85
2022/05/14 03:36:40;;;;;;;8.00;5.30;;;;;;;;;;4995089;28;20038;-85
2022/05/14 03:39:07;;;;;;;6.45;5.10;;;;;;;;;;4980166;28;20045;-85
2022/05/14 03:41:33;;;;;;;7.50;5.47;;;;;;;;;;4980517;28;20035;-85
2022/05/14 03:44:00;;;;;;;8.68;5.45;;;;;;;;;;4980500;28;20060;-85
2022/05/14 03:46:26;;;;;;;7.75;5.53;;;;;;;;;;4980167;28;20041;-85
2022/05/14 03:48:52;;;;;;;6.90;4.78;;;;;;;;;;4995739;28;20034;-85
2022/05/14 03:51:18;;;;;;;12.38;5.72;;;;;;;;;;4994915;28;20126;-85
2022/05/14 03:53:43;;;;;;;8.15;5.30;;;;;;;;;;4979431;28;20034;-84
2022/05/14 03:56:10;;;;;;;7.13;5.07;;;;;;;;;;4977940;28;20034;-85
2022/05/14 03:58:35;;;;;;;6.32;5.28;;;;;;;;;;4978494;28;20549;-85
2022/05/14 04:01:02;;;;;;;8.27;5.28;;;;;;;;;;4994788;28;20043;-85
2022/05/14 04:03:31;;;;;;;7.18;5.40;;;;;;;;;;4994905;28;20050;-85
2022/05/14 04:05:56;;;;;;;9.68;5.22;;;;;;;;;;4994341;28;20050;-85
2022/05/14 04:08:22;;;;;;;9.15;5.20;;;;;;;;;;4995330;28;20035;-85
2022/05/14 04:10:47;;;;;;;6.88;4.10;;;;;;;;;;4994417;28;20035;-85
2022/05/14 04:13:13;;;;;;;9.05;4.53;;;;;;;;;;4978356;28;20475;-85
2022/05/14 04:15:39;;;;;;;8.15;4.40;;;;;;;;;;4994934;28;20030;-85
2022/05/14 04:18:05;;;;;;;7.55;4.53;;;;;;;;;;4978995;28;20042;-85
2022/05/14 04:20:32;;;;;;;6.38;4.30;;;;;;;;;;4978749;28;20039;-85
2022/05/14 04:22:58;;;;;;;6.65;4.20;;;;;;;;;;4994369;28;20035;-85
2022/05/14 04:25:24;;;;;;;7.85;4.50;;;;;;;;;;4978403;28;20479;-85
2022/05/14 04:27:50;;;;;;;8.93;5.13;;;;;;;;;;4978707;28;20034;-85
2022/05/14 04:30:17;;;;;;;9.65;4.78;;;;;;;;;;4994617;28;20239;-85
2022/05/14 04:32:45;;;;;;;10.93;5.18;;;;;;;;;;4979236;28;20039;-85
2022/05/14 04:35:13;;;;;;;7.15;4.93;;;;;;;;;;4994744;28;20031;-85
2022/05/14 04:37:39;;;;;;;10.05;5.13;;;;;;;;;;4978807;28;20492;-84
2022/05/14 04:40:07;;;;;;;5.80;4.57;;;;;;;;;;4984691;28;20041;-85
2022/05/14 04:42:33;;;;;;;7.57;4.82;;;;;;;;;;4984530;28;20069;-85
2022/05/14 04:44:59;;;;;;;9.63;5.45;;;;;;;;;;5000500;28;20419;-85
2022/05/14 04:47:25;;;;;;;7.85;4.72;;;;;;;;;;4984759;28;20034;-85
2022/05/14 04:49:50;;;;;;;7.57;4.70;;;;;;;;;;5001461;28;20062;-85
2022/05/14 04:52:19;;;;;;;7.65;4.47;;;;;;;;;;4985062;28;20103;-85
2022/05/14 04:54:44;;;;;;;9.63;5.22;;;;;;;;;;5000781;28;20034;-85
2022/05/14 04:57:10;;;;;;;8.13;5.20;;;;;;;;;;5001492;28;20030;-85
2022/05/14 04:59:36;;;;;;;10.23;5.10;;;;;;;;;;5000149;28;20045;-85
2022/05/14 05:04:49;;;;;;;7.85;4.80;;;;;;;;;;5000660;28;20491;-85
2022/05/14 05:07:15;;;;;;;7.80;4.45;;;;;;;;;;4984659;28;20189;-85
2022/05/14 05:09:44;;;;;;;7.50;4.45;;;;;;;;;;4984922;28;20030;-85
2022/05/14 05:12:10;;;;;;;5.60;3.97;;;;;;;;;;4985607;28;20098;-84
2022/05/14 05:14:37;;;;;;;8.07;4.35;;;;;;;;;;4985789;28;20078;-85
2022/05/14 05:17:03;;;;;;;8.65;4.43;;;;;;;;;;5000878;28;20520;-85
2022/05/14 05:19:28;;;;;;;6.22;3.97;;;;;;;;;;4984897;28;20037;-85
2022/05/14 05:21:54;;;;;;;8.48;4.47;;;;;;;;;;4985847;28;20030;-85
2022/05/14 05:24:19;;;;;;;7.80;4.20;;;;;;;;;;4986305;28;20373;-85
2022/05/14 05:26:45;;;;;;;8.32;3.95;;;;;;;;;;4985572;28;20041;-85
2022/05/14 05:29:10;;;;;;;6.07;4.15;;;;;;;;;;4986310;28;20038;-85
2022/05/14 05:31:36;;;;;;;5.97;3.90;;;;;;;;;;4986296;28;20042;-85
2022/05/14 05:34:02;;;;;;;8.90;4.30;;;;;;;;;;4985577;28;20092;-85
2022/05/14 05:36:28;;;;;;;5.82;3.85;;;;;;;;;;5000807;28;20484;-85
2022/05/14 05:38:54;;;;;;;10.02;3.95;;;;;;;;;;5000609;28;20046;-85
2022/05/14 05:41:20;;;;;;;7.90;3.80;;;;;;;;;;4985509;28;20042;-85
2022/05/14 05:43:46;;;;;;;9.75;3.72;;;;;;;;;;4984897;28;20142;-85
2022/05/14 05:46:12;;;;;;;8.15;3.72;;;;;;;;;;5000025;28;20035;-85
2022/05/14 05:48:39;;;;;;;7.45;3.70;;;;;;;;;;4984294;28;20046;-85
2022/05/14 05:51:04;;;;;;;7.10;3.40;;;;;;;;;;4981955;28;20039;-85
2022/05/14 05:58:59;;;;;;;5.15;3.28;;;;;;;;;;4981806;28;20027;-85
2022/05/14 06:01:24;;;;;;;9.13;3.60;;;;;;;;;;4982249;28;20549;-85
2022/05/14 06:03:51;;;;;;;12.48;3.80;;;;;;;;;;4982387;28;20284;-85
2022/05/14 06:06:18;;;;;;;5.85;3.33;;;;;;;;;;4982437;28;20038;-85
2022/05/14 06:08:44;;;;;;;7.85;3.70;;;;;;;;;;4982698;28;20454;-85
2022/05/14 06:11:09;;;;;;;6.57;3.83;;;;;;;;;;4997398;28;20487;-86
2022/05/14 06:13:35;;;;;;;12.30;4.30;;;;;;;;;;4981211;28;20074;-86
2022/05/14 06:16:00;;;;;;;8.32;3.80;;;;;;;;;;4982367;28;20035;-85
2022/05/14 06:18:27;;;;;;;7.32;3.80;;;;;;;;;;4982282;28;20062;-85
2022/05/14 06:20:53;;;;;;;7.38;3.88;;;;;;;;;;4982142;28;20061;-85
2022/05/14 06:23:18;;;;;;;7.82;4.05;;;;;;;;;;4982633;28;20027;-85
2022/05/14 06:25:44;;;;;;;8.05;3.85;;;;;;;;;;4982175;28;20018;-85
2022/05/14 06:28:10;;;;;;;7.47;3.83;;;;;;;;;;4982715;28;20034;-86
2022/05/14 06:30:37;;;;;;;7.88;4.00;;;;;;;;;;4982882;28;20042;-86
2022/05/14 06:33:05;;;;;;;11.70;3.80;;;;;;;;;;4982545;28;20410;-85
2022/05/14 06:35:32;;;;;;;5.63;3.58;;;;;;;;;;4981750;28;20038;-85
2022/05/14 06:37:59;;;;;;;7.80;3.97;;;;;;;;;;4981938;28;20049;-86
2022/05/14 06:40:24;;;;;;;9.50;4.93;;;;;;;;;;4980337;28;20066;-85
2022/05/14 06:42:50;;;;;;;9.77;4.55;;;;;;;;;;4997248;28;20111;-86
2022/05/14 06:45:15;;;;;;;10.20;4.68;;;;;;;;;;4998357;28;20188;-86
2022/05/14 06:47:41;;;;;;;10.60;5.22;;;;;;;;;;4999036;28;20041;-85
2022/05/14 06:50:07;;;;;;;8.23;5.78;;;;;;;;;;4985032;28;20030;-85
2022/05/14 06:52:33;;;;;;;13.05;5.03;;;;;;;;;;4983547;28;20543;-85
2022/05/14 06:55:00;;;;;;;13.27;6.10;;;;;;;;;;4983707;28;20324;-85
2022/05/14 06:57:25;;;;;;;8.75;5.35;;;;;;;;;;4984078;28;20046;-85
2022/05/14 06:59:51;;;;;;;16.73;5.05;;;;;;;;;;4985104;28;20031;-85
2022/05/14 07:02:19;;;;;;;12.00;4.82;;;;;;;;;;4982897;28;20035;-85
2022/05/14 07:07:29;;;;;;;7.75;5.55;;;;;;;;;;4982799;28;20046;-85
2022/05/14 07:09:55;;;;;;;10.10;5.05;;;;;;;;;;4983304;28;20031;-86
2022/05/14 07:12:21;;;;;;;8.32;5.20;;;;;;;;;;4983324;28;20027;-85
2022/05/14 07:14:47;;;;;;;9.35;5.13;;;;;;;;;;4998794;28;20050;-85
2022/05/14 07:17:13;;;;;;;8.60;5.15;;;;;;;;;;4981919;28;20070;-85
2022/05/14 07:19:39;;;;;;;6.63;4.22;;;;;;;;;;4998432;28;20058;-86
2022/05/14 07:22:06;;;;;;;8.23;4.88;;;;;;;;;;4983007;28;20031;-86
2022/05/14 07:24:32;;;;;;;10.35;4.75;;;;;;;;;;4997248;28;20121;-85
2022/05/14 07:27:00;;;;;;;8.70;4.55;;;;;;;;;;4981561;28;20402;-86
2022/05/14 07:29:27;;;;;;;7.50;4.82;;;;;;;;;;4982551;28;20049;-86
2022/05/14 07:31:53;;;;;;;6.82;4.38;;;;;;;;;;4980486;28;20051;-86
2022/05/14 07:34:20;;;;;;;7.65;4.50;;;;;;;;;;4981350;28;20031;-86
2022/05/14 07:37:06;;;;;;;7.35;4.50;;;;;;;;;;4982338;28;20042;-86
2022/05/14 07:39:37;;;;;;;8.70;4.60;;;;;;;;;;4981990;28;20077;-85
2022/05/14 07:42:09;;;;;;;8.20;4.68;;;;;;;;;;4996611;28;20027;-85
2022/05/14 07:44:37;;;;;;;7.90;4.78;;;;;;;;;;4980782;28;20039;-86
2022/05/14 07:47:06;;;;;;;8.38;5.00;;;;;;;;;;4981343;28;20062;-86
2022/05/14 07:49:32;;;;;;;9.30;4.70;;;;;;;;;;4983040;28;20085;-86
2022/05/14 07:51:59;;;;;;;8.10;5.03;;;;;;;;;;4982860;28;20066;-86
2022/05/14 07:54:25;;;;;;;12.38;5.20;;;;;;;;;;4982423;28;20026;-86
2022/05/14 07:56:51;;;;;;;10.40;5.75;;;;;;;;;;4982528;28;20062;-86
2022/05/14 07:59:17;;;;;;;10.82;5.22;;;;;;;;;;4982585;28;20043;-85
2022/05/14 08:01:42;;;;;;;6.70;4.70;;;;;;;;;;4981730;28;20090;-86
2022/05/14 08:04:10;;;;;;;8.93;4.80;;;;;;;;;;4980091;28;20349;-86
2022/05/14 08:06:35;;;;;;;10.32;5.03;;;;;;;;;;4981106;28;20170;-86
2022/05/14 08:09:01;;;;;;;7.75;4.63;;;;;;;;;;4981027;28;20058;-86
2022/05/14 08:11:27;;;;;;;9.32;4.65;;;;;;;;;;4981454;28;20070;-86
2022/05/14 08:13:54;;;;;;;9.43;5.00;;;;;;;;;;4979625;28;20025;-85
2022/05/14 08:16:20;;;;;;;9.05;5.30;;;;;;;;;;4996200;28;20039;-86
2022/05/14 08:18:45;;;;;;;6.95;4.85;;;;;;;;;;4980029;28;20090;-86
2022/05/14 08:26:39;;;;;;;10.73;5.10;;;;;;;;;;4978912;28;20277;-85
2022/05/14 08:29:04;;;;;;;10.73;5.28;;;;;;;;;;4993557;28;20045;-86
2022/05/14 08:31:30;;;;;;;9.80;5.15;;;;;;;;;;4979081;28;20027;-85
2022/05/14 08:33:55;;;;;;;12.60;6.05;;;;;;;;;;4993682;28;20057;-86
2022/05/14 08:36:21;;;;;;;8.48;4.80;;;;;;;;;;4978845;28;20066;-86
2022/05/14 08:38:46;;;;;;;8.98;4.63;;;;;;;;;;4981304;28;20069;-86
2022/05/14 08:41:15;;;;;;;8.73;5.30;;;;;;;;;;4979815;28;20027;-86
2022/05/14 08:43:50;;;;;;;9.18;5.38;;;;;;;;;;4979657;28;20077;-86
2022/05/14 08:46:19;;;;;;;13.50;5.20;;;;;;;;;;4980635;28;20050;-86
2022/05/14 08:48:55;;;;;;;9.15;4.90;;;;;;;;;;4980725;28;20034;-86
2022/05/14 08:51:30;;;;;;;7.13;4.30;;;;;;;;;;4994942;28;20046;-86
2022/05/14 08:53:56;;;;;;;11.35;4.78;;;;;;;;;;4979119;28;20042;-86
2022/05/14 08:56:21;;;;;;;10.75;4.28;;;;;;;;;;4975842;28;20042;-86
2022/05/14 08:58:59;;;;;;;8.10;3.90;;;;;;;;;;4979782;28;20042;-86
2022/05/14 09:01:29;;;;;;;6.38;3.60;;;;;;;;;;4982345;28;20483;-86
2022/05/14 09:03:55;;;;;;;6.18;3.42;;;;;;;;;;5000621;28;20089;-87
2022/05/14 09:06:21;;;;;;;9.55;3.85;;;;;;;;;;4986225;28;20039;-86
2022/05/14 09:08:48;;;;;;;7.28;3.10;;;;;;;;;;4980842;28;20375;-87
2022/05/14 09:11:26;;;;;;;8.32;3.25;;;;;;;;;;4978990;28;20034;-86
2022/05/14 09:14:00;;;;;;;4.70;2.65;;;;;;;;;;4984545;28;20039;-87
2022/05/14 09:16:33;;;;;;;8.98;2.35;;;;;;;;;;4979186;28;20053;-86
2022/05/14 09:19:00;;;;;;;4.05;2.20;;;;;;;;;;4985661;28;20038;-86
2022/05/14 09:21:31;;;;;;;7.03;2.72;;;;;;;;;;4979416;28;20070;-86
2022/05/14 09:24:25;;;;;;;6.40;2.67;;;;;;;;;;4981224;28;20070;-86
2022/05/14 09:26:54;;;;;;;5.45;2.80;;;;;;;;;;4979143;28;20038;-86
2022/05/14 09:29:26;;;;;;;10.68;3.63;;;;;;;;;;4984180;28;20070;-86
2022/05/14 09:32:02;;;;;;;5.45;2.97;;;;;;;;;;4981422;28;20057;-86
2022/05/14 09:34:30;;;;;;;8.38;3.45;;;;;;;;;;4983466;28;20077;-86
2022/05/14 09:37:07;;;;;;;8.20;3.40;;;;;;;;;;4983542;28;20042;-86
2022/05/14 09:39:33;;;;;;;10.30;3.95;;;;;;;;;;4984467;28;20045;-86
2022/05/14 09:42:02;;;;;;;6.32;3.30;;;;;;;;;;4982631;28;20058;-86
2022/05/14 09:44:34;;;;;;;5.00;3.28;;;;;;;;;;4999007;28;20031;-86
2022/05/14 09:47:26;;;;;;;6.05;3.28;;;;;;;;;;5000415;28;20062;-87
2022/05/14 09:49:59;;;;;;;10.93;3.47;;;;;;;;;;4987149;28;20121;-87
2022/05/14 09:52:29;;;;;;;7.45;3.22;;;;;;;;;;4988199;28;20034;-86
2022/05/14 09:54:56;;;;;;;5.18;3.28;;;;;;;;;;4979343;28;20034;-87
2022/05/14 09:57:48;;;;;;;7.35;3.30;;;;;;;;;;4979619;28;20042;-86
2022/05/14 10:00:16;;;;;;;11.35;3.40;;;;;;;;;;4978998;28;20407;-87
2022/05/14 10:02:44;;;;;;;8.27;3.13;;;;;;;;;;4979093;28;20102;-87
2022/05/14 10:05:28;;;;;;;7.65;3.20;;;;;;;;;;4985261;28;20035;-87
2022/05/14 10:08:00;;;;;;;6.78;3.22;;;;;;;;;;4980356;28;20034;-87
2022/05/14 10:10:48;;;;;;;8.57;3.00;;;;;;;;;;4980561;28;20039;-87
2022/05/14 10:13:17;;;;;;;6.45;2.70;;;;;;;;;;4984093;28;20069;-87
2022/05/14 10:15:49;;;;;;;7.55;2.70;;;;;;;;;;4988331;28;20034;-87
2022/05/14 10:18:56;;;;;;;5.82;2.55;;;;;;;;;;4986611;28;20038;-87
2022/05/14 10:21:52;;;;;;;8.02;2.97;;;;;;;;;;4988900;28;20437;-87
2022/05/14 10:27:45;;;;;;;7.20;3.13;;;;;;;;;;5000819;28;20046;-87
2022/05/14 10:30:54;;;;;;;10.05;2.90;;;;;;;;;;4984179;28;20035;-87
2022/05/14 10:33:24;;;;;;;6.47;2.88;;;;;;;;;;4987562;28;20049;-87
2022/05/14 10:36:02;;;;;;;6.30;3.10;;;;;;;;;;5001294;28;20045;-87
2022/05/14 10:38:57;;;;;;;9.88;3.22;;;;;;;;;;5000434;28;20046;-87
2022/05/14 10:41:43;;;;;;;5.45;2.85;;;;;;;;;;4986600;28;20134;-87
2022/05/14 10:44:30;;;;;;;6.88;3.00;;;;;;;;;;4985658;28;20039;-87
2022/05/14 10:47:00;;;;;;;5.28;3.13;;;;;;;;;;5004484;28;20069;-87
2022/05/14 10:49:38;;;;;;;5.68;2.80;;;;;;;;;;5003307;28;20097;-87
2022/05/14 10:52:10;;;;;;;8.75;2.85;;;;;;;;;;4987481;28;20065;-87
2022/05/14 10:54:36;;;;;;;9.20;3.42;;;;;;;;;;4988079;28;20042;-87
2022/05/14 10:57:19;;;;;;;7.03;2.97;;;;;;;;;;5010285;23;20039;-90
2022/05/14 11:00:18;;;;;;;6.18;3.15;;;;;;;;;;4993381;28;20038;-89
2022/05/14 11:02:55;;;;;;;7.68;3.60;;;;;;;;;;4993260;28;20039;-89
2022/05/14 11:05:34;;;;;;;4.75;3.17;;;;;;;;;;5004046;28;20045;-89
2022/05/14 11:08:07;;;;;;;7.50;3.42;;;;;;;;;;4957948;28;20034;-89
2022/05/14 11:10:35;;;;;;;6.45;3.80;;;;;;;;;;4975748;28;20101;-90
2022/05/14 11:13:16;;;;;;;9.55;3.63;;;;;;;;;;4973803;28;20038;-88
2022/05/14 11:15:42;;;;;;;7.95;3.80;;;;;;;;;;4975512;28;20089;-89
2022/05/14 11:18:15;;;;;;;10.02;3.65;;;;;;;;;;4957971;28;20077;-89
2022/05/14 11:20:57;;;;;;;6.28;3.60;;;;;;;;;;4941807;28;20109;-89
2022/05/14 11:23:24;;;;;;;5.75;2.97;;;;;;;;;;4958002;28;20041;-89
2022/05/14 11:26:12;;;;;;;8.05;3.30;;;;;;;;;;4957847;28;20125;-89
2022/05/14 11:28:38;;;;;;;7.28;2.80;;;;;;;;;;4974260;28;20169;-88
2022/05/14 11:31:14;;;;;;;5.93;2.90;;;;;;;;;;4976221;28;20082;-88
2022/05/14 11:33:40;;;;;;;5.90;3.05;;;;;;;;;;4976052;28;20039;-90
2022/05/14 11:36:11;;;;;;;5.63;2.92;;;;;;;;;;4975182;28;20034;-90
2022/05/14 11:38:40;;;;;;;5.55;2.63;;;;;;;;;;4974957;28;20042;-88
2022/05/14 11:41:08;;;;;;;9.18;2.90;;;;;;;;;;4974664;28;20035;-89
2022/05/14 11:43:46;;;;;;;5.22;2.83;;;;;;;;;;4974617;28;20038;-88
2022/05/14 11:46:32;;;;;;;6.80;3.20;;;;;;;;;;4974311;28;20043;-88
2022/05/14 11:49:22;;;;;;;6.13;3.00;;;;;;;;;;4973396;28;20042;-88
2022/05/14 11:52:15;;;;;;;8.18;3.22;;;;;;;;;;4974279;28;20480;-90
2022/05/14 11:54:58;;;;;;;5.47;2.80;;;;;;;;;;4957172;28;20110;-89
2022/05/14 11:57:42;;;;;;;6.05;2.70;;;;;;;;;;4974567;28;20170;-88
2022/05/14 12:00:12;;;;;;;6.97;2.88;;;;;;;;;;4973011;28;20046;-88
2022/05/14 12:02:55;;;;;;;4.90;2.53;;;;;;;;;;4974390;28;20031;-89
2022/05/14 12:05:31;;;;;;;6.53;2.85;;;;;;;;;;4972547;28;20042;-89
2022/05/14 12:08:36;;;;;;;6.82;2.70;;;;;;;;;;4973830;28;20045;-88
2022/05/14 12:11:31;;;;;;;4.32;2.80;;;;;;;;;;4972485;28;20121;-89
2022/05/14 12:14:11;;;;;;;6.20;2.97;;;;;;;;;;4961406;28;20073;-90
2022/05/14 12:16:41;;;;;;;5.05;3.00;;;;;;;;;;4956707;28;20038;-88
2022/05/14 12:19:17;;;;;;;9.43;3.10;;;;;;;;;;4956513;28;20039;-88
2022/05/14 12:21:43;;;;;;;8.60;3.17;;;;;;;;;;4974077;28;20030;-89
2022/05/14 12:24:24;;;;;;;6.10;2.80;;;;;;;;;;4973732;28;20019;-88
2022/05/14 12:26:50;;;;;;;6.55;2.97;;;;;;;;;;4973883;28;20034;-88
2022/05/14 12:29:28;;;;;;;7.75;3.50;;;;;;;;;;4972595;28;20041;-89
2022/05/14 12:34:46;;;;;;;7.55;3.05;;;;;;;;;;4972090;28;20039;-89
2022/05/14 12:37:21;;;;;;;5.18;2.70;;;;;;;;;;4973343;28;20054;-88
2022/05/14 12:39:50;;;;;;;7.30;2.85;;;;;;;;;;4956264;28;20166;-90
2022/05/14 12:42:22;;;;;;;6.60;3.30;;;;;;;;;;4973406;28;20208;-89
2022/05/14 12:44:53;;;;;;;7.20;3.10;;;;;;;;;;4956161;28;20069;-89
2022/05/14 12:47:24;;;;;;;7.97;2.92;;;;;;;;;;4973241;28;20079;-89
2022/05/14 12:49:49;;;;;;;5.15;2.90;;;;;;;;;;4956105;28;20041;-89
2022/05/14 12:52:19;;;;;;;6.85;3.20;;;;;;;;;;4973118;28;20035;-89
2022/05/14 12:54:58;;;;;;;8.25;3.22;;;;;;;;;;4971780;28;20039;-88
2022/05/14 12:57:26;;;;;;;6.82;2.80;;;;;;;;;;4972153;28;20034;-89
2022/05/14 12:59:53;;;;;;;7.35;3.60;;;;;;;;;;4975094;28;20038;-88
2022/05/14 13:02:18;;;;;;;8.35;3.20;;;;;;;;;;4960106;28;20053;-88
2022/05/14 13:04:57;;;;;;;7.88;3.10;;;;;;;;;;4977132;28;20496;-89
2022/05/14 13:07:23;;;;;;;5.15;3.17;;;;;;;;;;4959610;28;20043;-89
2022/05/14 13:09:50;;;;;;;7.10;3.10;;;;;;;;;;4977260;28;20398;-88
2022/05/14 13:12:18;;;;;;;6.07;3.05;;;;;;;;;;4976665;28;20042;-88
2022/05/14 13:14:54;;;;;;;8.18;3.78;;;;;;;;;;4977089;28;20069;-89
2022/05/14 13:17:21;;;;;;;7.43;3.60;;;;;;;;;;4976654;28;20380;-88
2022/05/14 13:19:49;;;;;;;7.80;3.40;;;;;;;;;;4982302;28;20027;-89
2022/05/14 13:22:36;;;;;;;5.93;2.80;;;;;;;;;;4961243;28;20022;-88
2022/05/14 13:25:31;;;;;;;6.68;3.15;;;;;;;;;;4959682;28;20054;-89
2022/05/14 13:28:26;;;;;;;7.13;3.28;;;;;;;;;;4958101;28;20495;-89
2022/05/14 13:30:52;;;;;;;8.20;3.28;;;;;;;;;;4959243;28;20133;-88
2022/05/14 13:33:57;;;;;;;6.35;3.42;;;;;;;;;;4976606;28;20122;-91
2022/05/14 13:39:12;;;;;;;7.15;3.45;;;;;;;;;;4976618;28;20261;-88
2022/05/14 13:41:44;;;;;;;7.63;3.60;;;;;;;;;;4976491;28;20042;-88
2022/05/14 13:44:18;;;;;;;6.53;2.90;;;;;;;;;;4975050;28;20050;-91
2022/05/14 13:46:53;;;;;;;6.70;3.13;;;;;;;;;;4976420;28;20077;-91
2022/05/14 13:49:24;;;;;;;6.40;3.25;;;;;;;;;;4959123;28;20086;-89
2022/05/14 13:51:56;;;;;;;6.55;3.20;;;;;;;;;;4958887;28;20558;-88
2022/05/14 13:54:40;;;;;;;6.35;3.00;;;;;;;;;;4976191;28;20407;-88
2022/05/14 13:57:12;;;;;;;8.02;3.10;;;;;;;;;;4975976;28;20035;-90
2022/05/14 13:59:38;;;;;;;6.10;2.85;;;;;;;;;;4976423;28;20114;-88
2022/05/14 14:02:10;;;;;;;6.95;2.97;;;;;;;;;;4976107;28;20042;-91
2022/05/14 14:04:41;;;;;;;6.68;3.45;;;;;;;;;;4975870;28;20041;-89
2022/05/14 14:07:10;;;;;;;6.15;3.30;;;;;;;;;;4974715;28;20039;-89
2022/05/14 14:09:37;;;;;;;8.35;3.45;;;;;;;;;;4958803;28;20031;-90
2022/05/14 14:12:03;;;;;;;5.70;3.42;;;;;;;;;;4956994;28;20038;-90
2022/05/14 14:14:28;;;;;;;6.30;3.55;;;;;;;;;;4974617;28;20129;-89
2022/05/14 14:16:54;;;;;;;7.28;3.10;;;;;;;;;;4974664;28;20042;-89
2022/05/14 14:19:20;;;;;;;9.43;3.53;;;;;;;;;;4975628;28;20045;-89
2022/05/14 14:21:45;;;;;;;5.18;2.92;;;;;;;;;;4976697;28;20547;-89
2022/05/14 14:24:16;;;;;;;8.15;3.17;;;;;;;;;;4958175;28;20067;-89
2022/05/14 14:26:43;;;;;;;7.90;2.85;;;;;;;;;;4942396;28;20523;-89
2022/05/14 14:29:09;;;;;;;7.32;3.35;;;;;;;;;;4984084;28;20031;-89
2022/05/14 14:31:34;;;;;;;7.40;3.50;;;;;;;;;;4975412;28;20042;-89
2022/05/14 14:34:00;;;;;;;5.65;3.13;;;;;;;;;;4973912;28;20035;-89
2022/05/14 14:36:26;;;;;;;7.53;3.08;;;;;;;;;;4975442;28;20030;-89
2022/05/14 14:38:51;;;;;;;4.20;2.72;;;;;;;;;;4974111;28;20035;-89
2022/05/14 14:41:18;;;;;;;11.07;3.10;;;;;;;;;;4975322;28;20067;-89
2022/05/14 14:43:44;;;;;;;8.02;2.90;;;;;;;;;;4957856;28;20519;-89
2022/05/14 14:46:10;;;;;;;5.70;3.00;;;;;;;;;;4974938;28;20070;-89
2022/05/14 14:48:38;;;;;;;4.30;2.50;;;;;;;;;;4957971;28;20043;-88
2022/05/14 14:51:10;;;;;;;4.10;2.42;;;;;;;;;;4975110;28;20411;-89
2022/05/14 14:53:36;;;;;;;6.03;2.60;;;;;;;;;;4957593;28;20031;-89
2022/05/14 14:56:02;;;;;;;6.60;3.00;;;;;;;;;;4957571;28;20025;-89
2022/05/14 14:58:27;;;;;;;8.40;2.70;;;;;;;;;;4974716;28;20510;-89
2022/05/14 15:00:53;;;;;;;5.72;2.50;;;;;;;;;;4973545;28;20047;-89
2022/05/14 15:03:28;;;;;;;5.55;2.53;;;;;;;;;;4975000;28;20058;-90
2022/05/14 15:05:57;;;;;;;4.07;2.45;;;;;;;;;;4973437;28;20104;-89
2022/05/14 15:08:26;;;;;;;5.97;2.97;;;;;;;;;;4974902;28;20403;-90
2022/05/14 15:10:53;;;;;;;6.85;2.60;;;;;;;;;;4991952;28;20050;-91
2022/05/14 15:13:23;;;;;;;5.15;2.47;;;;;;;;;;4988203;28;20034;-89
2022/05/14 15:15:48;;;;;;;5.20;2.60;;;;;;;;;;4978109;28;20073;-89
2022/05/14 15:18:14;;;;;;;5.45;2.72;;;;;;;;;;4975755;28;20042;-89
2022/05/14 15:20:39;;;;;;;6.75;2.50;;;;;;;;;;4974016;28;20050;-90
2022/05/14 15:23:06;;;;;;;7.65;2.80;;;;;;;;;;4957154;28;20032;-88
2022/05/14 15:25:32;;;;;;;6.68;2.88;;;;;;;;;;4973084;28;20081;-89
2022/05/14 15:27:57;;;;;;;5.22;2.70;;;;;;;;;;4957227;28;20070;-89